| time (UTC) | temp C | wind direction | speed KPH | gust KPH | rain 1hr cm | rain 24hr cm | rain mn cm | humidity % | barometer mb |
| 20260507201520 | 11 | 294 | 1.6 | 3.2 | 0.20 | 4.60 | 0.91 | 99 | 1001.5 |
| 20260507201028 | 11 | 205 | 1.6 | 3.2 | 0.20 | 4.60 | 0.91 | 99 | 1001.4 |
| 20260507200509 | 11 | 191 | 0.0 | 3.2 | 0.20 | 4.60 | 0.91 | 99 | 1001.4 |
| 20260507200033 | 11 | 307 | 0.0 | 4.8 | 0.20 | 4.60 | 0.91 | 99 | 1001.5 |
| 20260507195518 | 11 | 209 | 1.6 | 4.8 | 0.20 | 4.60 | 0.91 | 99 | 1001.5 |
| 20260507195019 | 11 | 312 | 1.6 | 3.2 | 0.20 | 4.60 | 0.91 | 99 | 1001.5 |
| 20260507194547 | 11 | 300 | 0.0 | 3.2 | 0.20 | 4.60 | 0.91 | 99 | 1001.5 |
| 20260507194026 | 11 | 300 | 0.0 | 3.2 | 0.20 | 4.60 | 0.91 | 99 | 1001.6 |
| 20260507193527 | 11 | 205 | 0.0 | 4.8 | 0.20 | 4.60 | 0.91 | 99 | 1001.6 |
| 20260507193015 | 11 | 300 | 0.0 | 4.8 | 0.10 | 4.50 | 0.89 | 99 | 1001.6 |
| 20260507192535 | 11 | 116 | 1.6 | 4.8 | 0.10 | 4.50 | 0.89 | 99 | 1001.6 |
| 20260507192022 | 11 | 222 | 1.6 | 3.2 | 0.00 | 4.39 | 0.89 | 99 | 1001.5 |
| 20260507191523 | 11 | 221 | 0.0 | 3.2 | 0.00 | 4.39 | 0.89 | 100 | 1001.5 |
| 20260507191023 | 11 | 229 | 1.6 | 8.0 | 0.10 | 4.39 | 0.89 | 99 | 1001.5 |
| 20260507190530 | 11 | 248 | 3.2 | 8.0 | 0.10 | 4.39 | 0.89 | 99 | 1001.5 |
| 20260507190034 | 11 | 48 | 1.6 | 3.2 | 0.10 | 4.39 | 0.89 | 100 | 1001.4 |
| 20260507185511 | 11 | 308 | 1.6 | 6.4 | 0.10 | 4.39 | 0.89 | 100 | 1001.4 |
| 20260507185039 | 11 | 208 | 3.2 | 6.4 | 0.10 | 4.39 | 0.89 | 100 | 1001.3 |
| 20260507184547 | 11 | 200 | 1.6 | 3.2 | 0.30 | 4.39 | 0.89 | 100 | 1001.4 |
| 20260507184007 | 11 | 213 | 1.6 | 3.2 | 0.30 | 4.39 | 0.89 | 100 | 1001.4 |
| 20260507183508 | 11 | 216 | 1.6 | 3.2 | 0.30 | 4.39 | 0.89 | 100 | 1001.6 |
| 20260507183017 | 11 | 217 | 1.6 | 3.2 | 0.41 | 4.39 | 0.89 | 100 | 1001.6 |
| 20260507182518 | 11 | 220 | 1.6 | 4.8 | 0.51 | 4.39 | 0.89 | 100 | 1001.5 |
| 20260507182047 | 11 | 205 | 1.6 | 4.8 | 0.51 | 4.39 | 0.89 | 100 | 1001.4 |
| 20260507181527 | 11 | 206 | 1.6 | 4.8 | 0.51 | 4.39 | 0.89 | 100 | 1001.4 |
| 20260507181008 | 11 | 200 | 1.6 | 4.8 | 0.51 | 4.29 | 0.86 | 100 | 1001.6 |
| 20260507180536 | 11 | 239 | 0.0 | 6.4 | 0.51 | 4.29 | 0.86 | 100 | 1000.6 |
| 20260507180044 | 11 | 240 | 0.0 | 6.4 | 0.51 | 4.29 | 0.86 | 100 | 1001.2 |
| 20260507175520 | 11 | 192 | 3.2 | 11.3 | 0.51 | 4.29 | 0.86 | 100 | 1001.8 |
| 20260507175048 | 11 | 146 | 4.8 | 11.3 | 0.41 | 4.19 | 0.84 | 100 | 1002.3 |
| 20260507174508 | 11 | 223 | 3.2 | 8.0 | 0.41 | 4.09 | 0.81 | 100 | 1002.8 |
| 20260507174009 | 11 | 199 | 3.2 | 11.3 | 0.41 | 4.09 | 0.81 | 100 | 1002.0 |
| 20260507173534 | 11 | 229 | 6.4 | 11.3 | 0.51 | 4.09 | 0.81 | 100 | 1001.6 |
| 20260507173015 | 11 | 167 | 4.8 | 12.9 | 0.51 | 3.99 | 0.79 | 100 | 1001.1 |
| 20260507172516 | 11 | 201 | 6.4 | 12.9 | 0.41 | 3.91 | 0.79 | 100 | 1001.1 |
| 20260507172025 | 11 | 199 | 4.8 | 9.7 | 0.51 | 3.91 | 0.79 | 99 | 1001.1 |
| 20260507171522 | 11 | 206 | 3.2 | 8.0 | 0.61 | 3.91 | 0.79 | 99 | 1001.1 |
| 20260507171022 | 11 | 212 | 3.2 | 8.0 | 0.71 | 3.81 | 0.76 | 100 | 1000.8 |
| 20260507170530 | 11 | 204 | 4.8 | 8.0 | 0.79 | 3.81 | 0.76 | 99 | 1001.4 |
| 20260507170033 | 11 | 237 | 4.8 | 8.0 | 0.89 | 3.81 | 0.76 | 99 | 1001.7 |
| 20260507165512 | 11 | 207 | 4.8 | 16.1 | 1.09 | 3.81 | 0.76 | 100 | 1001.7 |
| 20260507165021 | 11 | 229 | 6.4 | 16.1 | 1.30 | 3.81 | 0.76 | 100 | 1002.0 |
| 20260507164541 | 11 | 172 | 4.8 | 11.3 | 1.30 | 3.71 | 0.74 | 99 | 1001.2 |
| 20260507164029 | 11 | 210 | 4.8 | 8.0 | 1.50 | 3.71 | 0.74 | 99 | 1001.9 |
| 20260507163537 | 11 | 212 | 3.2 | 9.7 | 1.50 | 3.61 | 0.71 | 100 | 1001.9 |
| 20260507163037 | 11 | 203 | 4.8 | 9.7 | 1.60 | 3.51 | 0.71 | 99 | 1002.3 |
| 20260507162544 | 11 | 203 | 3.2 | 8.0 | 1.70 | 3.51 | 0.71 | 100 | 1002.2 |
| 20260507162025 | 11 | 240 | 4.8 | 9.7 | 1.70 | 3.40 | 0.69 | 100 | 1002.1 |
| 20260507161534 | 11 | 203 | 6.4 | 9.7 | 1.70 | 3.20 | 0.64 | 100 | 1002.4 |
| 20260507161014 | 11 | 243 | 3.2 | 6.4 | 1.60 | 3.10 | 0.61 | 100 | 1002.3 |
| 20260507160515 | 11 | 214 | 3.2 | 6.4 | 1.70 | 3.00 | 0.61 | 99 | 1002.1 |
| 20260507160045 | 11 | 243 | 3.2 | 6.4 | 1.70 | 2.90 | 0.58 | 99 | 1002.1 |
| 20260507155524 | 11 | 230 | 3.2 | 8.0 | 1.50 | 2.69 | 0.53 | 99 | 1002.4 |
| 20260507155032 | 11 | 207 | 3.2 | 8.0 | 1.40 | 2.49 | 0.51 | 99 | 1002.6 |
| 20260507154514 | 11 | 207 | 3.2 | 12.9 | 1.30 | 2.39 | 0.48 | 99 | 1002.4 |
| 20260507154013 | 11 | 214 | 4.8 | 14.5 | 1.19 | 2.21 | 0.43 | 99 | 1002.7 |
| 20260507153514 | 11 | 237 | 4.8 | 8.0 | 1.19 | 2.11 | 0.43 | 99 | 1002.7 |
| 20260507153022 | 11 | 272 | 4.8 | 9.7 | 1.19 | 1.91 | 0.38 | 99 | 1002.9 |
| 20260507152523 | 11 | 210 | 6.4 | 11.3 | 1.19 | 1.80 | 0.36 | 99 | 1003.1 |
| 20260507152051 | 11 | 231 | 6.4 | 12.9 | 1.09 | 1.70 | 0.33 | 98 | 1003.4 |
| 20260507151510 | 11 | 231 | 8.0 | 16.1 | 0.89 | 1.50 | 0.30 | 98 | 1003.3 |
| 20260507151008 | 11 | 203 | 8.0 | 16.1 | 0.79 | 1.40 | 0.28 | 98 | 1003.3 |
| 20260507150517 | 11 | 233 | 6.4 | 8.0 | 0.71 | 1.30 | 0.25 | 99 | 1003.4 |
| 20260507150036 | 11 | 198 | 4.8 | 8.0 | 0.61 | 1.19 | 0.23 | 99 | 1003.5 |
| 20260507145541 | 11 | 247 | 4.8 | 8.0 | 0.61 | 1.19 | 0.23 | 98 | 1003.5 |
| 20260507145022 | 12 | 231 | 4.8 | 8.0 | 0.51 | 1.09 | 0.23 | 98 | 1003.4 |
| 20260507144530 | 12 | 229 | 4.8 | 9.7 | 0.51 | 1.09 | 0.23 | 98 | 1003.3 |
| 20260507144032 | 12 | 207 | 3.2 | 9.7 | 0.41 | 0.99 | 0.20 | 98 | 1003.4 |
| 20260507143511 | 12 | 239 | 6.4 | 11.3 | 0.30 | 0.89 | 0.18 | 98 | 1003.4 |
| 20260507143019 | 12 | 203 | 6.4 | 12.9 | 0.10 | 0.71 | 0.15 | 98 | 1003.3 |
| 20260507142548 | 12 | 167 | 4.8 | 14.5 | 0.00 | 0.61 | 0.13 | 98 | 1003.3 |
| 20260507142008 | 12 | 190 | 6.4 | 12.9 | 0.00 | 0.61 | 0.13 | 97 | 1003.3 |
| 20260507141510 | 12 | 229 | 6.4 | 19.3 | 0.00 | 0.61 | 0.13 | 97 | 1003.4 |
| 20260507141010 | 12 | 195 | 6.4 | 19.3 | 0.00 | 0.61 | 0.13 | 97 | 1003.2 |
| 20260507140539 | 12 | 209 | 6.4 | 14.5 | 0.00 | 0.61 | 0.13 | 97 | 1003.2 |
| 20260507140048 | 12 | 201 | 8.0 | 14.5 | 0.00 | 0.61 | 0.13 | 97 | 1003.2 |
| 20260507135546 | 11 | 194 | 6.4 | 14.5 | 0.00 | 0.61 | 0.13 | 97 | 1003.1 |
| 20260507135014 | 12 | 207 | 8.0 | 14.5 | 0.00 | 0.61 | 0.13 | 97 | 1003.3 |
| 20260507134513 | 12 | 198 | 6.4 | 14.5 | 0.00 | 0.61 | 0.13 | 97 | 1003.3 |
| 20260507134013 | 11 | 234 | 9.7 | 14.5 | 0.00 | 0.61 | 0.13 | 97 | 1003.5 |
| 20260507133522 | 11 | 207 | 8.0 | 17.7 | 0.00 | 0.61 | 0.13 | 97 | 1003.6 |
| 20260507133023 | 12 | 221 | 8.0 | 17.7 | 0.00 | 0.61 | 0.13 | 97 | 1003.6 |
| 20260507132525 | 12 | 223 | 6.4 | 16.1 | 0.00 | 0.61 | 0.13 | 97 | 1003.7 |
| 20260507132033 | 12 | 238 | 8.0 | 16.1 | 0.00 | 0.61 | 0.13 | 97 | 1003.6 |
| 20260507131514 | 12 | 242 | 9.7 | 16.1 | 0.00 | 0.61 | 0.13 | 96 | 1003.7 |
| 20260507131015 | 12 | 214 | 8.0 | 16.1 | 0.00 | 0.61 | 0.13 | 97 | 1003.6 |
| 20260507130516 | 12 | 195 | 9.7 | 19.3 | 0.00 | 0.61 | 0.13 | 97 | 1003.4 |
| 20260507130047 | 12 | 209 | 8.0 | 19.3 | 0.00 | 0.61 | 0.13 | 97 | 1003.7 |
| 20260507125534 | 12 | 215 | 9.7 | 16.1 | 0.00 | 0.61 | 0.13 | 97 | 1003.5 |
| 20260507125016 | 12 | 278 | 9.7 | 17.7 | 0.00 | 0.61 | 0.13 | 97 | 1003.4 |
| 20260507124516 | 12 | 245 | 9.7 | 17.7 | 0.00 | 0.61 | 0.13 | 97 | 1003.4 |
| 20260507124045 | 12 | 174 | 9.7 | 20.9 | 0.00 | 0.61 | 0.13 | 97 | 1003.7 |
| 20260507123526 | 12 | 200 | 11.3 | 20.9 | 0.00 | 0.61 | 0.13 | 96 | 1003.9 |
| 20260507123033 | 12 | 237 | 8.0 | 19.3 | 0.00 | 0.61 | 0.13 | 96 | 1004.0 |
| 20260507122514 | 12 | 254 | 9.7 | 19.3 | 0.10 | 0.61 | 0.13 | 96 | 1003.8 |
| 20260507122015 | 12 | 200 | 9.7 | 22.5 | 0.10 | 0.61 | 0.13 | 96 | 1003.7 |
| 20260507121517 | 12 | 203 | 11.3 | 24.1 | 0.20 | 0.61 | 0.13 | 96 | 1003.9 |
| 20260507121024 | 12 | 205 | 11.3 | 24.1 | 0.20 | 0.61 | 0.13 | 96 | 1003.8 |
| 20260507120525 | 12 | 228 | 11.3 | 20.9 | 0.20 | 0.61 | 0.13 | 96 | 1003.3 |
| 20260507120035 | 12 | 225 | 12.9 | 22.5 | 0.20 | 0.61 | 0.13 | 97 | 1003.0 |
| 20260507115535 | 12 | 200 | 12.9 | 22.5 | 0.20 | 0.61 | 0.13 | 97 | 1003.1 |
| 20260507115021 | 12 | 187 | 11.3 | 22.5 | 0.20 | 0.61 | 0.13 | 97 | 1003.5 |
| 20260507114522 | 11 | 247 | 12.9 | 24.1 | 0.20 | 0.61 | 0.13 | 97 | 1003.6 |
| 20260507114051 | 11 | 255 | 11.3 | 24.1 | 0.20 | 0.61 | 0.13 | 96 | 1003.7 |
| 20260507113527 | 11 | 201 | 9.7 | 22.5 | 0.20 | 0.61 | 0.13 | 96 | 1003.8 |
| 20260507113027 | 12 | 197 | 12.9 | 22.5 | 0.20 | 0.61 | 0.13 | 96 | 1003.7 |
| 20260507112517 | 12 | 225 | 12.9 | 25.7 | 0.10 | 0.51 | 0.10 | 96 | 1003.8 |
| 20260507112016 | 12 | 181 | 12.9 | 25.7 | 0.10 | 0.51 | 0.10 | 96 | 1003.8 |
| 20260507111517 | 12 | 195 | 12.9 | 22.5 | 0.00 | 0.41 | 0.08 | 97 | 1003.7 |
| 20260507111025 | 11 | 216 | 9.7 | 24.1 | 0.00 | 0.41 | 0.08 | 96 | 1003.8 |
| 20260507110547 | 11 | 193 | 12.9 | 25.7 | 0.00 | 0.41 | 0.08 | 96 | 1003.8 |
| 20260507110036 | 11 | 191 | 12.9 | 25.7 | 0.00 | 0.41 | 0.08 | 95 | 1003.9 |
| 20260507105514 | 11 | 226 | 12.9 | 25.7 | 0.00 | 0.41 | 0.08 | 95 | 1003.9 |
| 20260507105016 | 11 | 214 | 12.9 | 25.7 | 0.00 | 0.41 | 0.08 | 95 | 1004.0 |
| 20260507104523 | 11 | 200 | 12.9 | 24.1 | 0.00 | 0.41 | 0.08 | 95 | 1004.1 |
| 20260507104024 | 11 | 228 | 12.9 | 24.1 | 0.00 | 0.41 | 0.08 | 95 | 1004.1 |
| 20260507103531 | 11 | 142 | 12.9 | 22.5 | 0.00 | 0.41 | 0.08 | 94 | 1004.0 |
| 20260507103033 | 11 | 207 | 12.9 | 22.5 | 0.00 | 0.41 | 0.08 | 94 | 1004.1 |
| 20260507102539 | 11 | 209 | 11.3 | 19.3 | 0.00 | 0.41 | 0.08 | 94 | 1004.2 |
| 20260507102019 | 11 | 187 | 11.3 | 27.4 | 0.00 | 0.41 | 0.08 | 93 | 1004.3 |
| 20260507101520 | 11 | 180 | 11.3 | 27.4 | 0.00 | 0.41 | 0.08 | 93 | 1004.4 |
| 20260507101029 | 11 | 243 | 9.7 | 20.9 | 0.00 | 0.41 | 0.08 | 93 | 1004.5 |
| 20260507100509 | 11 | 184 | 8.0 | 17.7 | 0.00 | 0.41 | 0.08 | 93 | 1004.5 |
| 20260507100037 | 11 | 211 | 9.7 | 19.3 | 0.00 | 0.41 | 0.08 | 93 | 1004.5 |
| 20260507095543 | 11 | 173 | 9.7 | 19.3 | 0.00 | 0.41 | 0.08 | 93 | 1004.7 |
| 20260507095024 | 11 | 207 | 11.3 | 17.7 | 0.00 | 0.41 | 0.08 | 93 | 1004.9 |
| 20260507094553 | 11 | 202 | 9.7 | 20.9 | 0.00 | 0.41 | 0.08 | 92 | 1004.8 |
| 20260507094014 | 11 | 278 | 9.7 | 22.5 | 0.00 | 0.41 | 0.08 | 92 | 1004.8 |
| 20260507093534 | 11 | 116 | 9.7 | 24.1 | 0.00 | 0.41 | 0.08 | 91 | 1004.7 |
| 20260507093022 | 11 | 176 | 11.3 | 24.1 | 0.00 | 0.41 | 0.08 | 91 | 1004.7 |
| 20260507092522 | 11 | 216 | 11.3 | 22.5 | 0.00 | 0.41 | 0.08 | 91 | 1004.8 |
| 20260507092031 | 11 | 210 | 9.7 | 22.5 | 0.00 | 0.41 | 0.08 | 90 | 1004.7 |
| 20260507091527 | 11 | 211 | 11.3 | 24.1 | 0.00 | 0.41 | 0.08 | 91 | 1004.7 |
| 20260507091008 | 11 | 212 | 12.9 | 24.1 | 0.00 | 0.41 | 0.08 | 91 | 1004.9 |
| 20260507090516 | 11 | 148 | 12.9 | 22.5 | 0.00 | 0.41 | 0.08 | 91 | 1005.0 |
| 20260507090040 | 11 | 203 | 12.9 | 30.6 | 0.00 | 0.41 | 0.08 | 91 | 1005.0 |
| 20260507085525 | 11 | 189 | 12.9 | 30.6 | 0.00 | 0.41 | 0.08 | 91 | 1004.9 |
| 20260507085047 | 11 | 161 | 11.3 | 24.1 | 0.00 | 0.41 | 0.08 | 92 | 1005.0 |
| 20260507084535 | 11 | 195 | 11.3 | 24.1 | 0.00 | 0.41 | 0.08 | 91 | 1005.2 |
| 20260507084013 | 11 | 192 | 12.9 | 22.5 | 0.00 | 0.41 | 0.08 | 91 | 1005.3 |
| 20260507083513 | 11 | 193 | 11.3 | 22.5 | 0.00 | 0.41 | 0.08 | 91 | 1005.4 |
| 20260507083021 | 11 | 167 | 11.3 | 22.5 | 0.00 | 0.41 | 0.08 | 91 | 1005.3 |
| 20260507082522 | 11 | 191 | 11.3 | 22.5 | 0.10 | 0.41 | 0.08 | 90 | 1005.6 |
| 20260507082023 | 11 | 158 | 9.7 | 22.5 | 0.10 | 0.41 | 0.08 | 90 | 1005.8 |
| 20260507081532 | 11 | 201 | 9.7 | 20.9 | 0.10 | 0.41 | 0.08 | 90 | 1006.0 |
| 20260507081032 | 11 | 217 | 11.3 | 17.7 | 0.10 | 0.41 | 0.08 | 90 | 1006.1 |
| 20260507080539 | 11 | 203 | 11.3 | 19.3 | 0.10 | 0.41 | 0.08 | 90 | 1006.3 |
| 20260507080049 | 11 | 200 | 11.3 | 20.9 | 0.10 | 0.41 | 0.08 | 90 | 1006.4 |
| 20260507075527 | 11 | 186 | 12.9 | 22.5 | 0.10 | 0.41 | 0.08 | 91 | 1006.5 |
| 20260507075036 | 11 | 203 | 9.7 | 20.9 | 0.10 | 0.41 | 0.08 | 91 | 1006.6 |
| 20260507074517 | 11 | 182 | 11.3 | 20.9 | 0.10 | 0.41 | 0.08 | 91 | 1006.5 |
| 20260507074018 | 11 | 186 | 9.7 | 24.1 | 0.20 | 0.41 | 0.08 | 91 | 1006.7 |
| 20260507073525 | 11 | 205 | 12.9 | 24.1 | 0.20 | 0.41 | 0.08 | 91 | 1006.7 |
| 20260507073026 | 11 | 211 | 9.7 | 19.3 | 0.41 | 0.41 | 0.08 | 92 | 1006.8 |
| 20260507072528 | 11 | 207 | 9.7 | 19.3 | 0.30 | 0.30 | 0.05 | 93 | 1006.9 |
| 20260507072008 | 11 | 200 | 9.7 | 19.3 | 0.30 | 0.30 | 0.05 | 93 | 1007.1 |
| 20260507071517 | 10 | 158 | 8.0 | 19.3 | 0.30 | 0.30 | 0.05 | 93 | 1007.4 |
| 20260507071014 | 10 | 209 | 6.4 | 19.3 | 0.30 | 0.30 | 0.05 | 92 | 1007.0 |
| 20260507070516 | 11 | 211 | 8.0 | 19.3 | 0.30 | 0.30 | 0.05 | 91 | 1007.3 |
| 20260507070113 | 11 | 208 | 9.7 | 19.3 | 0.30 | 0.30 | 0.05 | 92 | 1007.4 |
| 20260507065510 | 11 | 199 | 8.0 | 17.7 | 0.30 | 0.30 | 0.05 | 93 | 1007.7 |
| 20260507065011 | 11 | 166 | 8.0 | 20.9 | 0.30 | 0.30 | 0.05 | 93 | 1007.7 |
| 20260507064511 | 11 | 186 | 8.0 | 20.9 | 0.30 | 0.30 | 0.05 | 92 | 1007.3 |
| 20260507064040 | 11 | 197 | 9.7 | 20.9 | 0.20 | 0.20 | 0.05 | 91 | 1007.8 |
| 20260507063520 | 11 | 201 | 9.7 | 20.9 | 0.20 | 0.20 | 0.05 | 90 | 1008.2 |
| 20260507063027 | 12 | 196 | 9.7 | 16.1 | 0.00 | 0.00 | 0.00 | 89 | 1008.4 |
| 20260507062528 | 12 | 237 | 9.7 | 19.3 | 0.00 | 0.00 | 0.00 | 88 | 1008.3 |
| 20260507062009 | 12 | 266 | 11.3 | 22.5 | 0.00 | 0.00 | 0.00 | 87 | 1008.4 |
| 20260507061517 | 12 | 250 | 9.7 | 22.5 | 0.00 | 0.00 | 0.00 | 86 | 1008.6 |
| 20260507061017 | 12 | 178 | 8.0 | 19.3 | 0.00 | 0.00 | 0.00 | 85 | 1008.7 |
| 20260507060546 | 12 | 221 | 8.0 | 19.3 | 0.00 | 0.00 | 0.00 | 85 | 1008.9 |
| 20260507060044 | 12 | 210 | 11.3 | 19.3 | 0.00 | 0.00 | 0.00 | 85 | 1008.9 |
| 20260507055530 | 12 | 214 | 6.4 | 20.9 | 0.00 | 0.00 | 0.00 | 86 | 1008.9 |
| 20260507055010 | 12 | 217 | 8.0 | 20.9 | 0.00 | 0.00 | 0.00 | 86 | 1009.0 |
| 20260507054510 | 12 | 201 | 8.0 | 22.5 | 0.00 | 0.00 | 0.00 | 86 | 1009.0 |
| 20260507054018 | 12 | 195 | 14.5 | 27.4 | 0.00 | 0.00 | 0.00 | 86 | 1009.1 |
| 20260507053543 | 12 | 191 | 12.9 | 27.4 | 0.00 | 0.00 | 0.00 | 87 | 1009.2 |
| 20260507053022 | 11 | 230 | 9.7 | 20.9 | 0.00 | 0.00 | 0.00 | 88 | 1009.4 |
| 20260507052523 | 11 | 198 | 8.0 | 17.7 | 0.00 | 0.00 | 0.00 | 87 | 1009.3 |
| 20260507052030 | 12 | 198 | 8.0 | 16.1 | 0.00 | 0.00 | 0.00 | 87 | 1009.3 |
| 20260507051516 | 12 | 153 | 8.0 | 19.3 | 0.00 | 0.00 | 0.00 | 87 | 1008.9 |
| 20260507051016 | 12 | 188 | 9.7 | 19.3 | 0.00 | 0.00 | 0.00 | 87 | 1009.2 |
| 20260507050514 | 12 | 205 | 8.0 | 17.7 | 0.00 | 0.00 | 0.00 | 87 | 1009.7 |
| 20260507050100 | 12 | 201 | 6.4 | 17.7 | 0.00 | 0.00 | 0.00 | 87 | 1009.9 |
| 20260507045509 | 12 | 205 | 9.7 | 16.1 | 0.00 | 0.00 | 0.00 | 87 | 1010.1 |
| 20260507045054 | 12 | 190 | 8.0 | 16.1 | 0.00 | 0.00 | 0.00 | 87 | 1010.2 |
| 20260507044514 | 12 | 184 | 8.0 | 14.5 | 0.00 | 0.00 | 0.00 | 86 | 1010.3 |
| 20260507044016 | 12 | 212 | 6.4 | 17.7 | 0.00 | 0.00 | 0.00 | 87 | 1010.3 |
| 20260507043516 | 12 | 199 | 11.3 | 17.7 | 0.00 | 0.00 | 0.00 | 86 | 1010.5 |
| 20260507043024 | 12 | 209 | 9.7 | 19.3 | 0.00 | 0.00 | 0.00 | 87 | 1010.5 |
| 20260507042509 | 12 | 148 | 9.7 | 19.3 | 0.00 | 0.00 | 0.00 | 87 | 1010.6 |
| 20260507042055 | 12 | 196 | 9.7 | 20.9 | 0.00 | 0.00 | 0.00 | 87 | 1010.6 |
| 20260507041513 | 12 | 158 | 11.3 | 20.9 | 0.00 | 0.00 | 0.00 | 87 | 1010.9 |
| 20260507041015 | 12 | 203 | 11.3 | 19.3 | 0.00 | 0.00 | 0.00 | 87 | 1010.9 |
| 20260507040514 | 12 | 196 | 11.3 | 19.3 | 0.00 | 0.00 | 0.00 | 87 | 1010.8 |
| 20260507040044 | 12 | 195 | 9.7 | 16.1 | 0.00 | 0.00 | 0.00 | 87 | 1010.9 |
| 20260507035531 | 12 | 193 | 9.7 | 14.5 | 0.00 | 0.00 | 0.00 | 87 | 1010.9 |
| 20260507035027 | 12 | 172 | 8.0 | 14.5 | 0.00 | 0.00 | 0.00 | 87 | 1011.0 |
| 20260507034533 | 12 | 199 | 6.4 | 17.7 | 0.00 | 0.00 | 0.00 | 86 | 1010.9 |
| 20260507034013 | 13 | 210 | 9.7 | 17.7 | 0.00 | 0.00 | 0.00 | 86 | 1011.4 |
| 20260507033514 | 13 | 192 | 6.4 | 17.7 | 0.00 | 0.00 | 0.00 | 86 | 1011.1 |
| 20260507033016 | 13 | 170 | 8.0 | 17.7 | 0.00 | 0.00 | 0.00 | 86 | 1011.2 |
| 20260507032524 | 13 | 173 | 9.7 | 16.1 | 0.00 | 0.00 | 0.00 | 86 | 1011.2 |
| 20260507032009 | 13 | 207 | 6.4 | 22.5 | 0.00 | 0.00 | 0.00 | 86 | 1011.3 |
| 20260507031532 | 13 | 194 | 9.7 | 22.5 | 0.00 | 0.00 | 0.00 | 86 | 1011.4 |
| 20260507031013 | 13 | 240 | 9.7 | 19.3 | 0.00 | 0.00 | 0.00 | 86 | 1011.8 |
| 20260507030513 | 13 | 187 | 11.3 | 19.3 | 0.00 | 0.00 | 0.00 | 86 | 1011.6 |
| 20260507030104 | 13 | 205 | 9.7 | 24.1 | 0.00 | 0.00 | 0.00 | 86 | 1011.7 |
| 20260507025530 | 13 | 203 | 11.3 | 24.1 | 0.00 | 0.00 | 0.00 | 86 | 1011.9 |
| 20260507025009 | 13 | 212 | 9.7 | 29.0 | 0.00 | 0.00 | 0.00 | 86 | 1012.1 |
| 20260507024511 | 13 | 239 | 9.7 | 29.0 | 0.00 | 0.00 | 0.00 | 86 | 1012.1 |
| 20260507024012 | 13 | 198 | 11.3 | 19.3 | 0.00 | 0.00 | 0.00 | 86 | 1012.2 |
| 20260507023520 | 13 | 179 | 9.7 | 17.7 | 0.00 | 0.00 | 0.00 | 86 | 1012.3 |
| 20260507023021 | 13 | 211 | 9.7 | 19.3 | 0.00 | 0.00 | 0.00 | 86 | 1012.4 |
| 20260507022526 | 13 | 224 | 9.7 | 20.9 | 0.00 | 0.00 | 0.00 | 86 | 1012.4 |
| 20260507022043 | 13 | 191 | 11.3 | 20.9 | 0.00 | 0.00 | 0.00 | 86 | 1012.3 |
| 20260507021530 | 13 | 221 | 9.7 | 19.3 | 0.00 | 0.00 | 0.00 | 86 | 1012.5 |
| 20260507021011 | 13 | 223 | 9.7 | 19.3 | 0.00 | 0.00 | 0.00 | 86 | 1012.7 |
| 20260507020512 | 14 | 194 | 11.3 | 19.3 | 0.00 | 0.00 | 0.00 | 86 | 1012.6 |
| 20260507020042 | 14 | 204 | 9.7 | 16.1 | 0.00 | 0.00 | 0.00 | 86 | 1012.6 |
| 20260507015521 | 14 | 216 | 9.7 | 19.3 | 0.00 | 0.00 | 0.00 | 86 | 1012.8 |
| 20260507015022 | 14 | 236 | 9.7 | 19.3 | 0.00 | 0.00 | 0.00 | 86 | 1012.7 |
| 20260507014514 | 14 | 204 | 9.7 | 16.1 | 0.00 | 0.00 | 0.00 | 86 | 1012.9 |
| 20260507014015 | 14 | 269 | 9.7 | 20.9 | 0.00 | 0.00 | 0.00 | 86 | 1012.9 |
| 20260507013515 | 14 | 263 | 8.0 | 20.9 | 0.00 | 0.00 | 0.00 | 86 | 1012.8 |
| 20260507013024 | 14 | 235 | 9.7 | 20.9 | 0.00 | 0.00 | 0.00 | 86 | 1012.8 |
| 20260507012542 | 14 | 192 | 9.7 | 20.9 | 0.00 | 0.00 | 0.00 | 86 | 1012.8 |
| 20260507012030 | 14 | 192 | 9.7 | 20.9 | 0.00 | 0.00 | 0.00 | 86 | 1012.9 |
| 20260507011514 | 14 | 217 | 9.7 | 17.7 | 0.00 | 0.00 | 0.00 | 86 | 1013.0 |
| 20260507011015 | 14 | 223 | 9.7 | 17.7 | 0.00 | 0.00 | 0.00 | 85 | 1013.1 |
| 20260507010516 | 14 | 198 | 9.7 | 16.1 | 0.00 | 0.00 | 0.00 | 85 | 1013.1 |
| 20260507010046 | 14 | 210 | 8.0 | 16.1 | 0.00 | 0.00 | 0.00 | 85 | 1013.2 |
| 20260507005532 | 15 | 210 | 9.7 | 19.3 | 0.00 | 0.00 | 0.00 | 85 | 1013.3 |
| 20260507005033 | 14 | 164 | 9.7 | 17.7 | 0.00 | 0.00 | 0.00 | 85 | 1013.2 |
| 20260507004513 | 14 | 223 | 9.7 | 17.7 | 0.00 | 0.00 | 0.00 | 85 | 1013.3 |
| 20260507004021 | 14 | 227 | 9.7 | 17.7 | 0.00 | 0.00 | 0.00 | 85 | 1013.3 |
| 20260507003522 | 14 | 203 | 9.7 | 17.7 | 0.00 | 0.00 | 0.00 | 85 | 1013.2 |
| 20260507003021 | 14 | 205 | 9.7 | 19.3 | 0.00 | 0.00 | 0.00 | 85 | 1013.3 |
| 20260507002530 | 15 | 212 | 9.7 | 19.3 | 0.00 | 0.00 | 0.00 | 85 | 1013.3 |
| 20260507002010 | 15 | 186 | 9.7 | 19.3 | 0.00 | 0.00 | 0.00 | 84 | 1013.2 |
| 20260507001510 | 15 | 223 | 9.7 | 19.3 | 0.00 | 0.00 | 0.00 | 84 | 1013.1 |
| 20260507001019 | 15 | 221 | 9.7 | 20.9 | 0.00 | 0.00 | 0.00 | 84 | 1013.2 |
| 20260507000519 | 15 | 242 | 9.7 | 20.9 | 0.00 | 0.00 | 0.00 | 83 | 1013.1 |
| 20260507000049 | 15 | 232 | 9.7 | 17.7 | 0.00 | 0.00 | 0.00 | 83 | 1013.0 |
| 20260506235528 | 15 | 308 | 9.7 | 17.7 | 0.00 | 0.00 | 0.00 | 83 | 1012.9 |
| 20260506235009 | 15 | 158 | 8.0 | 19.3 | 0.00 | 0.00 | 0.00 | 83 | 1012.9 |
| 20260506234510 | 15 | 234 | 9.7 | 19.3 | 0.00 | 0.00 | 0.00 | 83 | 1012.9 |
| 20260506234018 | 15 | 201 | 9.7 | 22.5 | 0.00 | 0.00 | 0.00 | 83 | 1012.8 |
| 20260506233518 | 15 | 236 | 12.9 | 22.5 | 0.00 | 0.00 | 0.00 | 82 | 1012.6 |
| 20260506233019 | 15 | 195 | 11.3 | 20.9 | 0.00 | 0.00 | 0.00 | 82 | 1012.7 |
| 20260506232528 | 15 | 198 | 11.3 | 19.3 | 0.00 | 0.00 | 0.00 | 82 | 1012.6 |
| 20260506232056 | 15 | 173 | 9.7 | 20.9 | 0.00 | 0.00 | 0.00 | 82 | 1012.7 |
| 20260506231537 | 15 | 273 | 9.7 | 24.1 | 0.00 | 0.00 | 0.00 | 81 | 1012.7 |
| 20260506231016 | 15 | 192 | 11.3 | 24.1 | 0.00 | 0.00 | 0.00 | 81 | 1012.7 |
| 20260506230525 | 15 | 221 | 9.7 | 20.9 | 0.00 | 0.00 | 0.00 | 81 | 1012.8 |
| 20260506230115 | 15 | 229 | 11.3 | 20.9 | 0.00 | 0.00 | 0.00 | 81 | 1012.6 |
| 20260506225513 | 15 | 167 | 9.7 | 20.9 | 0.00 | 0.00 | 0.00 | 80 | 1012.6 |
| 20260506225013 | 16 | 184 | 9.7 | 17.7 | 0.00 | 0.00 | 0.00 | 80 | 1012.6 |
| 20260506224523 | 16 | 149 | 9.7 | 19.3 | 0.00 | 0.00 | 0.00 | 79 | 1012.6 |
| 20260506224023 | 16 | 198 | 9.7 | 22.5 | 0.00 | 0.00 | 0.00 | 79 | 1012.7 |
| 20260506223521 | 16 | 191 | 12.9 | 22.5 | 0.00 | 0.00 | 0.00 | 79 | 1012.6 |
| 20260506223049 | 16 | 252 | 9.7 | 22.5 | 0.00 | 0.00 | 0.00 | 78 | 1012.7 |
| 20260506222529 | 16 | 178 | 11.3 | 29.0 | 0.00 | 0.00 | 0.00 | 77 | 1012.6 |
| 20260506222009 | 16 | 252 | 11.3 | 20.9 | 0.00 | 0.00 | 0.00 | 77 | 1012.5 |
| 20260506221517 | 16 | 297 | 11.3 | 22.5 | 0.00 | 0.00 | 0.00 | 77 | 1012.6 |
| 20260506221018 | 16 | 217 | 11.3 | 22.5 | 0.00 | 0.00 | 0.00 | 76 | 1012.5 |
| 20260506220547 | 16 | 230 | 9.7 | 17.7 | 0.00 | 0.00 | 0.00 | 76 | 1012.5 |
| 20260506220057 | 17 | 202 | 11.3 | 17.7 | 0.00 | 0.00 | 0.00 | 75 | 1012.4 |
| 20260506215514 | 17 | 231 | 9.7 | 17.7 | 0.00 | 0.00 | 0.00 | 75 | 1012.4 |
| 20260506215016 | 17 | 204 | 9.7 | 19.3 | 0.00 | 0.00 | 0.00 | 73 | 1012.4 |
| 20260506214540 | 17 | 194 | 11.3 | 19.3 | 0.00 | 0.00 | 0.00 | 73 | 1012.4 |
| 20260506214020 | 17 | 179 | 9.7 | 17.7 | 0.00 | 0.00 | 0.00 | 73 | 1012.4 |
| 20260506213528 | 17 | 255 | 9.7 | 22.5 | 0.00 | 0.00 | 0.00 | 73 | 1012.3 |
| 20260506213014 | 17 | 207 | 9.7 | 22.5 | 0.00 | 0.00 | 0.00 | 73 | 1012.2 |
| 20260506212515 | 17 | 261 | 11.3 | 20.9 | 0.00 | 0.00 | 0.00 | 72 | 1012.3 |
| 20260506212015 | 17 | 188 | 9.7 | 20.9 | 0.00 | 0.00 | 0.00 | 73 | 1012.2 |
| 20260506211523 | 17 | 191 | 9.7 | 20.9 | 0.00 | 0.00 | 0.00 | 72 | 1012.0 |
| 20260506211025 | 17 | 212 | 11.3 | 22.5 | 0.00 | 0.00 | 0.00 | 72 | 1012.1 |
| 20260506210532 | 17 | 231 | 11.3 | 22.5 | 0.00 | 0.00 | 0.00 | 72 | 1012.0 |
| 20260506210035 | 17 | 131 | 12.9 | 20.9 | 0.00 | 0.00 | 0.00 | 73 | 1012.0 |
| 20260506205514 | 17 | 184 | 11.3 | 20.9 | 0.00 | 0.00 | 0.00 | 72 | 1012.0 |
| 20260506205022 | 17 | 207 | 9.7 | 20.9 | 0.00 | 0.00 | 0.00 | 72 | 1012.0 |
| 20260506204523 | 17 | 238 | 11.3 | 19.3 | 0.00 | 0.00 | 0.00 | 74 | 1011.8 |
| 20260506204025 | 17 | 252 | 9.7 | 19.3 | 0.00 | 0.00 | 0.00 | 75 | 1011.8 |
| 20260506203532 | 17 | 187 | 9.7 | 20.9 | 0.00 | 0.00 | 0.00 | 75 | 1011.8 |
| 20260506203035 | 17 | 246 | 9.7 | 20.9 | 0.00 | 0.00 | 0.00 | 75 | 1011.8 |
| 20260506202515 | 17 | 223 | 8.0 | 17.7 | 0.00 | 0.00 | 0.00 | 75 | 1011.8 |
| 20260506202044 | 17 | 215 | 9.7 | 19.3 | 0.00 | 0.00 | 0.00 | 74 | 1011.8 |